Flight Track Log - Related Links

Times and Time Zones

All times are in EDT time to prevent confusion due to time zone crossing. See the SWA655 flight status page for this flight to view local times or setup timezone preferences in your user account.

Time Position Orientation Groundspeed Altitude Reporting Facility
EDT Latitude Longitude Course Direction KTS MPH feet Rate Location/Type
Wed 07:11:41 PM 33.9372 -118.5236 263° West 210 242 3,200  Level Los Angeles Center
Wed 07:12:43 PM 33.9022 -118.5986 241° Southwest 267 307 6,700 3,097 Climbing Los Angeles Center
Wed 07:13:45 PM 33.8500 -118.5528 144° Southeast 260 299 9,600 2,468 Climbing Los Angeles Center
Wed 07:14:47 PM 33.8942 -118.4772 55° Northeast 276 318 11,800 2,129 Climbing Los Angeles Center
Wed 07:15:49 PM 33.9461 -118.4108 47° Northeast 321 369 14,000 2,565 Climbing Los Angeles Center
Wed 07:16:51 PM 34.0108 -118.2947 56° Northeast 344 396 17,100 2,613 Climbing Los Angeles Center
Wed 07:17:53 PM 34.0706 -118.1903 55° Northeast 371 427 19,400 2,323 Climbing Los Angeles Center
Wed 07:18:55 PM 34.1308 -118.0836 56° Northeast 382 440 21,900 2,081 Climbing Los Angeles Center
Wed 07:19:57 PM 34.1928 -117.9750 55° Northeast 390 449 23,700 1,500 Climbing Los Angeles Center
Wed 07:20:59 PM 34.2567 -117.8589 56° Northeast 412 474 25,000 624 Climbing Los Angeles Center
Wed 07:22:02 PM 34.3244 -117.7392 56° Northeast 429 494 25,000  Level Los Angeles Center
Wed 07:23:04 PM 34.3950 -117.6100 56° Northeast 432 497 25,000 532 Level Los Angeles Center
Wed 07:24:06 PM 34.4603 -117.4936 56° Northeast 423 487 26,100 1,306 Climbing Los Angeles Center
Wed 07:25:08 PM 34.5369 -117.3536 56° Northeast 421 484 27,700 1,403 Climbing Los Angeles Center
Wed 07:26:10 PM 34.6033 -117.2350 56° Northeast 427 491 29,000 629 Climbing Los Angeles Center
Wed 07:27:12 PM 34.6681 -117.1164 56° Northeast 424 488 29,000  Level Los Angeles Center
Wed 07:28:14 PM 34.7317 -116.9983 57° Northeast 422 486 29,000  Level Los Angeles Center
Wed 07:29:16 PM 34.7978 -116.8789 56° Northeast 426 490 29,000  Level Los Angeles Center
Wed 07:30:18 PM 34.8772 -116.7317 57° Northeast 434 499 29,000 -144 Level Los Angeles Center
Wed 07:31:21 PM 34.9433 -116.6097 56° Northeast 435 501 28,700 -1,296 Descending Los Angeles Center
Wed 07:32:23 PM 35.0200 -116.5050 48° Northeast 414 476 26,300 -2,274 Descending Los Angeles Center
Wed 07:33:25 PM 35.0969 -116.4075 46° Northeast 402 463 24,000 -1,113 Descending Los Angeles Center
Wed 07:34:27 PM 35.1700 -116.3169 45° Northeast 383 441 24,000  Level Los Angeles Center
Wed 07:35:29 PM 35.2594 -116.2047 46° Northeast 384 442 24,000 -618 Level Los Angeles Center
Wed 07:36:43 PM 35.3311 -116.1133 46° Northeast 376 433 22,600 -1,708 Descending Los Angeles Center
Wed 07:37:46 PM 35.4156 -116.0075 46° Northeast 362 417 20,100 -2,272 Descending Los Angeles Center
Wed 07:38:26 PM 35.4636 -115.9433 47° Northeast 362 417 18,700 -1,935 Descending Los Angeles Center
Wed 07:38:48 PM 35.4814 -115.9233 42° Northeast 346 398 18,100 -2,071 Descending Los Angeles Center
Wed 07:39:50 PM 35.5614 -115.8208 46° Northeast 358 412 15,800 -2,081 Descending Los Angeles Center
Wed 07:40:52 PM 35.6264 -115.7411 45° Northeast 341 392 13,800 -1,403 Descending Los Angeles Center
Wed 07:41:54 PM 35.6394 -115.6444 81° East 312 359 12,900 -677 Descending Los Angeles Center
Wed 07:42:56 PM 35.6314 -115.5556 96° East 271 312 12,400 -1,016 Descending Los Angeles Center
Wed 07:43:58 PM 35.6417 -115.4778 81° East 237 273 10,800 -1,694 Descending Los Angeles Center
Wed 07:45:00 PM 35.6825 -115.3975 58° Northeast 248 285 8,900 -1,338 Descending Los Angeles Center
Wed 07:46:08 PM 35.7428 -115.3544 30° Northeast 235 270 7,900 -912 Descending Los Angeles Center
Wed 07:47:05 PM 35.7969 -115.3275 22° Northeast 232 267 7,000 -454 Descending Los Angeles Center
Wed 07:48:07 PM 35.8564 -115.2958 23° Northeast 232 267 7,000 -145 Level Los Angeles Center
Wed 07:49:09 PM 35.9103 -115.2631 26° Northeast 227 261 6,700 -823 Descending Los Angeles Center
Wed 07:50:11 PM 35.9572 -115.2364 25° Northeast 208 239 5,300 -1,385 Descending Los Angeles Center
Wed 07:51:19 PM 36.0189 -115.2031 24° Northeast 188 216 3,700 -1,232 Descending Los Angeles Center
Wed 07:52:03 PM 36.0464 -115.1858 27° Northeast 144 166 3,000 -906 Descending Los Angeles Center
Wed 07:53:05 PM 36.0836 -115.1633 26° Northeast 148 170 2,100 -871 Descending Los Angeles Center

Login

Don't have an account? Register now (free) for customized features, flight alerts, and more!